Time;durP1;ratioP1;P1;durP2;ratioP2;P2;SDS_P1;SDS_P2;PMS_P1;PMS_P2;Temp;Humidity;BMP_temperature;BMP_pressure;BME280_temperature;BME280_humidity;BME280_pressure;Samples;Min_cycle;Max_cycle;Signal;HPM_P1;HPM_P2
2023/02/03 00:01:22;;;;;;;7.05;2.15;;;9.10;99.90;;;8.11;86.15;103212.88;5171907;23;20004;-79
2023/02/03 00:03:23;;;;;;;5.28;2.15;;;9.10;99.90;;;8.27;86.02;103239.22;5198960;22;20343;-79
2023/02/03 00:05:24;;;;;;;7.13;1.90;;;9.10;99.90;;;8.16;85.64;103204.75;5198882;22;20003;-79
2023/02/03 00:07:25;;;;;;;4.03;1.55;;;9.10;99.90;;;8.27;85.89;103228.72;5198561;22;20046;-79
2023/02/03 00:09:26;;;;;;;7.38;1.80;;;9.10;99.90;;;8.13;85.91;103202.28;5198843;22;20003;-79
2023/02/03 00:11:30;;;;;;;6.10;2.30;;;9.10;99.90;;;8.20;86.23;103212.41;5199160;22;20043;-79
2023/02/03 00:13:31;;;;;;;4.15;2.05;;;9.10;99.90;;;8.15;86.14;103196.00;5198768;22;20007;-79
2023/02/03 00:15:32;;;;;;;6.35;2.63;;;9.10;99.90;;;8.19;85.98;103215.09;5172007;23;20004;-79
2023/02/03 00:17:32;;;;;;;5.57;1.98;;;9.10;99.90;;;8.09;86.28;103192.88;5198754;22;20395;-79
2023/02/03 00:19:33;;;;;;;4.07;1.83;;;9.10;99.90;;;8.24;86.49;103218.34;5171379;23;20034;-79
2023/02/03 00:21:34;;;;;;;4.55;1.70;;;9.10;99.90;;;8.09;86.52;103190.22;5198798;22;20012;-79
2023/02/03 00:23:35;;;;;;;5.22;1.92;;;9.10;99.90;;;8.12;85.97;103182.19;5198482;22;20031;-79
2023/02/03 00:25:38;;;;;;;5.53;1.48;;;9.10;99.90;;;8.16;86.51;103188.97;5198354;22;20019;-79
2023/02/03 00:27:39;;;;;;;2.15;1.15;;;9.10;99.90;;;8.22;86.69;103204.41;5198789;22;20343;-79
2023/02/03 00:29:39;;;;;;;2.22;0.95;;;9.10;99.90;;;8.11;86.65;103189.22;5171937;23;20012;-79
2023/02/03 00:31:40;;;;;;;1.55;0.80;;;9.10;99.90;;;8.24;86.81;103218.34;5171707;23;20455;-79
2023/02/03 00:33:41;;;;;;;2.53;1.20;;;9.10;99.90;;;8.23;86.21;103209.59;5198629;22;20004;-79
2023/02/03 00:35:42;;;;;;;3.28;0.90;;;9.10;99.90;;;8.09;86.83;103190.22;5198672;22;20000;-79
2023/02/03 00:37:43;;;;;;;2.20;1.02;;;9.10;99.90;;;8.22;85.90;103205.28;5198373;22;20525;-79
2023/02/03 00:39:44;;;;;;;3.80;1.23;;;9.10;99.90;;;8.15;86.20;103184.66;5198645;22;20058;-79
2023/02/03 00:41:44;;;;;;;2.78;1.20;;;9.10;99.90;;;8.17;85.51;103195.94;5198637;22;20011;-79
2023/02/03 00:43:46;;;;;;;5.43;1.13;;;9.10;99.90;;;8.17;85.83;103190.69;5198583;22;20004;-79
2023/02/03 00:45:47;;;;;;;2.75;1.05;;;9.10;99.90;;;8.14;85.74;103180.31;5172013;23;20011;-79
2023/02/03 00:47:48;;;;;;;2.25;1.00;;;9.10;99.90;;;8.13;85.92;103194.38;5170284;23;20008;-79
2023/02/03 00:49:49;;;;;;;2.28;1.20;;;9.10;99.90;;;8.22;85.81;103205.28;5198487;22;20012;-79
2023/02/03 00:51:51;;;;;;;8.15;1.73;;;9.10;99.90;;;8.11;85.34;103185.75;5198264;22;20054;-79
2023/02/03 00:53:52;;;;;;;1.85;0.80;;;9.10;99.90;;;8.08;85.59;103172.75;5171673;22;20027;-79
2023/02/03 00:55:52;;;;;;;2.10;0.93;;;9.10;99.90;;;8.21;85.03;103194.84;5198519;22;20007;-79
2023/02/03 00:57:53;;;;;;;2.13;1.02;;;9.10;99.90;;;8.23;85.49;103200.88;5171699;23;20054;-79
2023/02/03 00:59:54;;;;;;;1.08;0.50;;;9.10;99.90;;;8.08;85.52;103173.59;5198465;22;20005;-79
2023/02/03 01:01:55;;;;;;;3.97;1.23;;;9.10;99.90;;;8.10;85.91;103187.50;5198463;22;20007;-79
2023/02/03 01:03:56;;;;;;;1.58;0.70;;;9.00;99.90;;;8.09;85.49;103171.84;5198482;22;20004;-79
2023/02/03 01:06:19;;;;;;;1.45;0.70;;;9.10;99.90;;;8.06;85.47;103164.97;5198525;22;20007;-79
2023/02/03 01:08:20;;;;;;;1.92;0.88;;;9.00;99.90;;;8.21;85.56;103195.69;5198133;22;20096;-79
2023/02/03 01:10:20;;;;;;;2.92;1.17;;;9.10;99.90;;;8.11;85.38;103172.59;5198547;22;20003;-79
2023/02/03 01:12:21;;;;;;;2.08;1.23;;;9.00;99.90;;;8.09;85.08;103166.56;5171295;23;20008;-79
2023/02/03 01:14:22;;;;;;;1.80;0.90;;;9.10;99.90;;;8.22;85.77;103194.75;5198489;22;20375;-79
2023/02/03 01:16:24;;;;;;;1.88;1.27;;;9.10;99.90;;;8.24;85.26;103192.06;5198698;22;20007;-79
2023/02/03 01:18:25;;;;;;;4.75;0.80;;;9.10;99.90;;;8.24;85.31;103197.31;5198588;22;20057;-79
2023/02/03 01:20:25;;;;;;;1.48;0.60;;;9.10;99.90;;;8.23;85.64;103195.59;5198554;22;20495;-79
2023/02/03 01:22:29;;;;;;;1.33;0.82;;;9.10;99.90;;;8.01;85.52;103158.22;5198113;22;20053;-79
2023/02/03 01:24:30;;;;;;;1.48;0.50;;;9.00;99.90;;;8.21;85.94;103195.69;5171330;23;20019;-79
2023/02/03 01:26:31;;;;;;;1.92;0.52;;;9.00;99.90;;;8.18;85.49;103193.22;5198332;22;20432;-79
2023/02/03 01:28:32;;;;;;;2.63;0.60;;;9.00;99.90;;;8.20;85.57;103195.78;5198286;22;20083;-79
2023/02/03 01:30:33;;;;;;;1.52;0.73;;;9.00;99.90;;;8.13;85.69;103176.84;5199612;22;20066;-79
2023/02/03 01:32:34;;;;;;;1.33;0.60;;;9.00;99.90;;;8.15;86.13;103182.84;5174273;23;20011;-79
2023/02/03 01:34:35;;;;;;;1.60;0.80;;;9.00;99.90;;;8.18;86.46;103190.56;5201137;22;20004;-79
2023/02/03 01:36:36;;;;;;;4.13;0.80;;;9.00;99.90;;;8.05;85.74;103170.28;5201138;22;20000;-79
2023/02/03 01:38:38;;;;;;;1.88;0.60;;;9.00;99.90;;;8.08;85.90;103180.63;5201124;22;20014;-79
2023/02/03 01:40:45;;;;;;;2.08;1.02;;;9.00;99.90;;;8.18;85.83;103189.75;5201149;22;20042;-79
2023/02/03 01:42:46;;;;;;;2.45;1.23;;;9.00;99.90;;;8.02;86.41;103179.19;5201340;22;20010;-79
2023/02/03 01:44:53;;;;;;;2.25;0.95;;;9.00;99.90;;;8.05;86.46;103183.44;5201245;22;20003;-79
2023/02/03 01:46:54;;;;;;;3.00;0.70;;;9.00;99.90;;;7.91;86.38;103160.50;5201080;22;20010;-79
2023/02/03 01:49:24;;;;;;;1.33;0.70;;;9.00;99.90;;;8.11;86.66;103194.47;5174251;23;20008;-79
2023/02/03 01:51:25;;;;;;;3.78;0.90;;;9.00;99.90;;;8.03;87.09;103166.91;5157297;23;20015;-79
2023/02/03 01:53:26;;;;;;;1.60;0.70;;;8.90;99.90;;;8.06;87.17;103185.13;5173969;23;20010;-78
2023/02/03 01:55:42;;;;;;;3.92;0.65;;;8.90;99.90;;;7.91;85.93;103157.03;5201078;22;19999;-79
2023/02/03 01:58:07;;;;;;;1.70;0.73;;;9.00;99.90;;;8.12;86.04;103180.38;5201075;22;20058;-79
2023/02/03 02:00:09;;;;;;;1.75;0.70;;;9.00;99.90;;;8.12;85.80;103182.19;5176401;22;20035;-79
2023/02/03 02:02:11;;;;;;;1.88;0.70;;;9.00;99.90;;;8.12;85.50;103197.97;5174034;23;20016;-79
2023/02/03 02:04:13;;;;;;;1.35;0.60;;;9.00;99.90;;;8.11;85.97;103191.00;5174173;22;20044;-79
2023/02/03 02:06:14;;;;;;;1.48;0.68;;;9.00;99.90;;;8.00;85.88;103180.19;5200977;22;20344;-79
2023/02/03 02:08:17;;;;;;;2.17;1.13;;;8.90;99.90;;;8.06;87.08;103193.03;5173519;23;20014;-79
2023/02/03 02:10:18;;;;;;;3.00;0.70;;;8.90;99.90;;;7.93;87.44;103174.41;5201000;22;20074;-79
2023/02/03 02:12:19;;;;;;;1.23;0.60;;;8.90;99.90;;;7.91;88.02;103170.16;5201224;22;20338;-79
2023/02/03 02:14:20;;;;;;;1.95;0.50;;;8.90;99.90;;;7.82;88.98;103165.38;5200905;22;20007;-79
2023/02/03 02:16:51;;;;;;;2.85;0.60;;;8.90;99.90;;;7.96;89.44;103182.13;5200848;22;20035;-79
2023/02/03 02:19:37;;;;;;;2.67;0.70;;;8.80;99.90;;;7.94;89.52;103177.88;5201117;22;20011;-79
2023/02/03 02:22:28;;;;;;;2.00;0.80;;;8.80;99.90;;;7.93;88.81;103171.78;5162833;22;20331;-79
2023/02/03 02:24:43;;;;;;;2.88;0.80;;;8.80;99.90;;;7.95;89.12;103169.91;5074003;23;20026;-79
2023/02/03 02:27:37;;;;;;;1.80;0.73;;;8.80;99.90;;;7.94;89.30;103177.88;5050027;23;20017;-79
2023/02/03 02:30:06;;;;;;;3.13;0.70;;;8.80;99.90;;;7.79;89.55;103164.59;5032381;23;20017;-79
2023/02/03 02:32:29;;;;;;;4.10;0.55;;;8.80;99.90;;;7.85;89.50;103168.72;5126547;23;20012;-79
2023/02/03 02:35:03;;;;;;;1.80;0.90;;;8.70;99.90;;;7.85;90.33;103170.47;5173745;23;20016;-79
2023/02/03 02:38:03;;;;;;;3.72;1.02;;;8.70;99.90;;;7.80;89.80;103168.94;5200847;22;20113;-79
2023/02/03 02:40:22;;;;;;;2.80;1.58;;;8.70;99.90;;;7.79;90.56;103161.13;5190670;22;20498;-79
2023/02/03 02:42:40;;;;;;;3.45;1.40;;;8.70;99.90;;;7.65;90.91;103138.19;5198502;22;20491;-79
2023/02/03 02:45:02;;;;;;;5.35;1.05;;;8.60;99.90;;;7.64;90.90;103144.38;5174119;22;20015;-79
2023/02/03 02:47:20;;;;;;;1.92;0.90;;;8.60;99.90;;;7.64;91.36;103141.75;5176237;22;20035;-79
2023/02/03 02:49:49;;;;;;;1.48;0.85;;;8.60;99.90;;;7.78;91.53;103156.81;5199387;22;20062;-79
2023/02/03 02:51:52;;;;;;;2.50;1.10;;;8.60;99.90;;;7.73;91.57;103154.44;5173525;22;20578;-79
2023/02/03 02:53:58;;;;;;;2.00;0.90;;;8.60;99.90;;;7.67;91.33;103141.59;5199538;22;20027;-79
2023/02/03 02:56:02;;;;;;;2.20;1.23;;;8.60;99.90;;;7.67;91.65;103149.50;5172982;22;20044;-79
2023/02/03 02:58:09;;;;;;;2.42;1.30;;;8.60;99.90;;;7.67;91.53;103141.59;5148012;23;20024;-79
2023/02/03 03:00:11;;;;;;;2.85;1.23;;;8.60;99.90;;;7.70;92.35;103154.59;5173073;22;20007;-79
2023/02/03 03:02:13;;;;;;;2.40;1.10;;;8.60;99.90;;;7.58;92.13;103128.94;5172698;23;20011;-79
2023/02/03 03:04:19;;;;;;;2.00;1.00;;;8.60;99.90;;;7.66;92.47;103147.78;5199381;22;20031;-79
2023/02/03 03:06:33;;;;;;;2.10;1.08;;;8.60;99.90;;;7.73;92.41;103154.44;5173099;22;20008;-79
2023/02/03 03:08:46;;;;;;;2.35;1.23;;;8.60;99.90;;;7.72;92.33;103152.72;5147533;23;20015;-79
2023/02/03 03:10:49;;;;;;;1.70;1.13;;;8.60;99.90;;;7.74;92.65;103148.22;5173808;22;20001;-79
2023/02/03 03:13:03;;;;;;;1.73;1.10;;;8.60;99.90;;;7.75;92.87;103149.94;5199283;22;20000;-79
2023/02/03 03:15:11;;;;;;;2.22;1.17;;;8.60;99.90;;;7.67;92.49;103141.59;5199319;22;20082;-79
2023/02/03 03:17:21;;;;;;;3.47;1.20;;;8.60;99.90;;;7.62;92.72;103124.34;5173276;22;20317;-79
2023/02/03 03:19:27;;;;;;;2.33;1.10;;;8.60;99.90;;;7.74;92.81;103145.59;5199267;22;20010;-79
2023/02/03 03:21:37;;;;;;;2.55;1.30;;;8.60;99.90;;;7.60;92.84;103126.22;5172892;22;20031;-79
2023/02/03 03:23:41;;;;;;;2.55;1.17;;;8.60;99.90;;;7.59;92.76;103130.63;5173387;22;20004;-79
2023/02/03 03:26:15;;;;;;;2.45;1.25;;;8.60;99.90;;;7.62;93.22;103134.88;5199216;22;20019;-79
2023/02/03 03:28:27;;;;;;;1.83;1.00;;;8.60;99.90;;;7.67;93.42;103141.59;5172593;22;20012;-79
2023/02/03 03:30:38;;;;;;;2.08;1.20;;;8.60;99.90;;;7.61;93.40;103130.56;5172993;22;20436;-79
2023/02/03 03:32:39;;;;;;;2.33;1.10;;;8.50;99.90;;;7.54;93.45;103121.28;5172637;22;19999;-79
2023/02/03 03:34:41;;;;;;;1.35;0.80;;;8.50;99.90;;;7.56;93.99;103124.66;5172280;23;20008;-79
2023/02/03 03:37:26;;;;;;;2.92;1.23;;;8.50;99.90;;;7.65;93.13;103135.56;5198974;22;20086;-79
2023/02/03 03:39:35;;;;;;;3.65;1.13;;;8.50;99.90;;;7.47;93.58;103114.63;5199271;22;20015;-79
2023/02/03 03:41:42;;;;;;;3.38;1.42;;;8.50;99.90;;;7.51;93.77;103117.03;5173444;22;20054;-79
2023/02/03 03:43:46;;;;;;;2.00;0.95;;;8.50;99.90;;;7.51;93.82;103118.81;5172218;23;20012;-79
2023/02/03 03:45:58;;;;;;;2.25;1.20;;;8.50;99.90;;;7.60;94.31;103132.34;5199061;22;20007;-79
2023/02/03 03:48:07;;;;;;;1.25;0.90;;;8.40;99.90;;;7.60;93.76;103129.69;5199019;22;20008;-79
2023/02/03 03:50:15;;;;;;;2.00;1.00;;;8.40;99.90;;;7.48;93.66;103100.59;5198942;22;20086;-79
2023/02/03 03:52:23;;;;;;;3.15;1.10;;;8.40;99.90;;;7.47;93.95;103107.63;5172470;22;20083;-79
2023/02/03 03:54:25;;;;;;;3.83;1.30;;;8.40;99.90;;;7.45;94.58;103098.97;5171904;22;20027;-79
2023/02/03 03:56:40;;;;;;;2.25;1.05;;;8.40;99.90;;;7.48;93.72;103106.69;5172158;22;20044;-79
2023/02/03 03:58:45;;;;;;;2.13;0.80;;;8.40;99.90;;;7.54;93.68;103116.03;5199024;22;20003;-79
2023/02/03 04:00:47;;;;;;;1.60;0.98;;;8.40;99.90;;;7.57;94.12;103127.25;5172312;22;20004;-79
2023/02/03 04:02:54;;;;;;;2.92;1.30;;;8.40;99.90;;;7.59;93.99;103125.38;5199232;22;20443;-79
2023/02/03 04:04:59;;;;;;;2.15;1.25;;;8.40;99.90;;;7.58;93.87;103122.84;5172624;22;20047;-79
2023/02/03 04:07:00;;;;;;;4.50;1.60;;;8.40;99.90;;;7.55;94.33;103126.47;5198773;22;20012;-79
2023/02/03 04:09:01;;;;;;;2.38;1.05;;;8.40;99.90;;;7.40;94.77;103108.88;5171844;23;20512;-79
2023/02/03 04:11:02;;;;;;;2.10;1.30;;;8.40;99.90;;;7.48;94.24;103117.19;5198870;22;20439;-79
2023/02/03 04:13:04;;;;;;;2.10;1.00;;;8.40;99.90;;;7.52;94.42;103128.41;5198688;22;20000;-78
2023/02/03 04:15:06;;;;;;;2.58;1.00;;;8.40;99.90;;;7.51;95.35;103124.91;5198965;22;20305;-79
2023/02/03 04:17:08;;;;;;;3.58;1.08;;;8.40;99.90;;;7.50;95.59;103131.09;5199017;22;20011;-79
2023/02/03 04:19:09;;;;;;;2.88;1.05;;;8.40;99.90;;;7.40;95.60;103111.50;5171997;23;20079;-79
2023/02/03 04:21:10;;;;;;;3.83;2.67;;;8.40;99.90;;;7.34;95.44;103113.56;5198867;22;20382;-79
2023/02/03 04:23:11;;;;;;;3.00;1.52;;;8.40;99.90;;;7.33;95.63;103111.88;5198574;22;20007;-79
2023/02/03 04:25:12;;;;;;;3.15;1.25;;;8.40;99.90;;;7.34;96.12;103114.44;5198466;22;20022;-79
2023/02/03 04:27:13;;;;;;;4.18;1.40;;;8.40;99.90;;;7.35;96.10;103113.47;5198640;22;20010;-79
2023/02/03 04:29:14;;;;;;;3.10;1.35;;;8.30;99.90;;;7.28;95.74;103099.00;5198648;22;20065;-79
2023/02/03 04:31:15;;;;;;;1.85;1.02;;;8.40;99.90;;;7.44;96.15;103130.53;5198868;22;19999;-79
2023/02/03 04:33:16;;;;;;;2.90;1.27;;;8.40;99.90;;;7.35;96.25;103104.78;5198423;22;20007;-79
2023/02/03 04:35:17;;;;;;;3.90;1.30;;;8.30;99.90;;;7.34;96.73;103109.19;5198686;22;20004;-79
2023/02/03 04:37:19;;;;;;;3.20;1.23;;;8.30;99.90;;;7.39;96.80;103127.31;5171775;23;20000;-79
2023/02/03 04:39:21;;;;;;;2.38;0.85;;;8.30;99.90;;;7.44;96.71;103141.03;5198666;22;20012;-79
2023/02/03 04:41:22;;;;;;;4.25;1.08;;;8.30;99.90;;;7.37;96.31;103118.66;5171849;22;20474;-79
2023/02/03 04:43:23;;;;;;;3.85;1.60;;;8.30;99.90;;;7.35;96.55;103126.63;5198555;22;20004;-79
2023/02/03 04:45:23;;;;;;;1.58;0.80;;;8.40;99.90;;;7.33;96.31;103125.00;5198578;22;20436;-79
2023/02/03 04:47:24;;;;;;;3.50;1.27;;;8.30;99.90;;;7.31;96.37;103122.47;5198615;22;20004;-79
2023/02/03 04:49:25;;;;;;;3.08;1.20;;;8.30;99.90;;;7.30;96.93;103109.41;5198507;22;20004;-79
2023/02/03 04:51:26;;;;;;;4.70;1.67;;;8.30;99.90;;;7.29;97.55;103116.41;5171548;23;20007;-79
2023/02/03 04:53:27;;;;;;;2.45;1.60;;;8.30;99.90;;;7.28;97.51;103109.47;5198495;22;19999;-79
2023/02/03 04:55:28;;;;;;;1.90;1.38;;;8.30;99.90;;;7.31;97.79;103114.59;5198612;22;19999;-79
2023/02/03 04:57:29;;;;;;;1.95;0.98;;;8.30;99.90;;;7.22;97.91;103089.66;5198621;22;20035;-79
2023/02/03 04:59:30;;;;;;;2.78;1.20;;;8.30;99.90;;;7.35;97.62;103108.22;5198549;22;20339;-79
2023/02/03 05:01:31;;;;;;;3.38;0.90;;;8.30;99.90;;;7.29;97.25;103105.91;5198088;22;20004;-79
2023/02/03 05:03:32;;;;;;;3.40;1.27;;;8.30;99.90;;;7.29;96.78;103110.34;5198400;22;20007;-79
2023/02/03 05:05:33;;;;;;;1.92;1.17;;;8.30;99.90;;;7.28;97.00;103106.88;5198254;22;20353;-79
2023/02/03 05:07:34;;;;;;;4.50;1.20;;;8.30;99.90;;;7.29;96.92;103120.84;5198406;22;20004;-79
2023/02/03 05:09:34;;;;;;;3.67;1.40;;;8.20;99.90;;;7.27;97.27;103115.66;5198251;22;20454;-79
2023/02/03 05:11:35;;;;;;;2.58;0.95;;;8.30;99.90;;;7.38;96.49;103136.97;5198404;22;20004;-79
2023/02/03 05:13:36;;;;;;;2.90;1.20;;;8.30;99.90;;;7.38;96.93;103131.72;5198460;22;20000;-79
2023/02/03 05:15:37;;;;;;;3.05;1.20;;;8.30;99.90;;;7.30;97.26;103126.00;5198412;22;20011;-79
2023/02/03 05:17:39;;;;;;;1.95;1.02;;;8.30;99.90;;;7.38;96.88;103139.59;5198357;22;20007;-79
2023/02/03 05:19:39;;;;;;;1.95;1.38;;;8.20;99.90;;;7.27;97.44;103118.28;5198401;22;20560;-79
2023/02/03 05:21:40;;;;;;;1.30;0.80;;;8.20;99.90;;;7.27;97.27;103118.28;5198117;22;20007;-79
2023/02/03 05:23:41;;;;;;;4.18;1.15;;;8.20;99.90;;;7.27;97.59;103122.66;5171501;23;20015;-79
2023/02/03 05:25:43;;;;;;;2.67;1.17;;;8.20;99.90;;;7.22;97.35;103118.53;5171172;23;20070;-78
2023/02/03 05:27:44;;;;;;;3.75;1.23;;;8.20;99.90;;;7.18;98.15;103119.59;5198374;22;20435;-78
2023/02/03 05:29:45;;;;;;;3.25;1.25;;;8.20;99.90;;;7.16;97.84;103117.97;5198290;22;20033;-79
2023/02/03 05:31:46;;;;;;;1.75;1.05;;;8.20;99.90;;;7.18;98.04;103126.59;5198350;22;20023;-79
2023/02/03 05:33:46;;;;;;;2.22;1.27;;;8.20;99.90;;;7.24;98.59;103139.44;5198225;22;20026;-79
2023/02/03 05:35:47;;;;;;;2.15;1.20;;;8.20;99.90;;;7.14;99.33;103127.69;5146546;23;20005;-79
2023/02/03 05:37:48;;;;;;;3.45;1.05;;;8.10;99.90;;;7.23;99.38;103137.72;5198087;22;20488;-79
2023/02/03 05:39:49;;;;;;;4.85;1.10;;;8.10;99.90;;;7.22;98.76;103141.28;5171605;23;20015;-79
2023/02/03 05:41:53;;;;;;;2.58;1.00;;;8.10;99.90;;;7.19;99.77;103130.94;5198275;22;20015;-79
2023/02/03 05:43:54;;;;;;;3.45;1.20;;;8.10;99.90;;;7.16;100.00;103136.34;5198258;22;20050;-79
2023/02/03 05:45:58;;;;;;;2.63;0.93;;;8.00;99.90;;;6.98;100.00;103117.09;5198282;22;20003;-79
2023/02/03 05:48:01;;;;;;;3.47;1.02;;;8.00;99.90;;;7.06;99.89;103127.22;5172204;22;20068;-79
2023/02/03 05:50:02;;;;;;;1.92;1.30;;;8.00;99.90;;;6.94;100.00;103112.06;5198226;22;20064;-79
2023/02/03 05:52:03;;;;;;;2.80;1.30;;;8.00;99.90;;;7.00;100.00;103130.13;5171214;23;20333;-79
2023/02/03 05:54:05;;;;;;;5.40;1.10;;;8.00;99.90;;;6.99;100.00;103133.69;5198223;22;20003;-79
2023/02/03 05:56:06;;;;;;;1.90;1.05;;;8.00;99.90;;;6.96;100.00;103134.69;5171428;23;20004;-79
2023/02/03 05:58:07;;;;;;;2.72;1.15;;;8.00;99.90;;;7.09;100.00;103155.94;5171431;23;20004;-79
2023/02/03 06:00:09;;;;;;;2.95;1.13;;;8.00;99.90;;;6.95;100.00;103126.91;5198169;22;20477;-79
2023/02/03 06:02:09;;;;;;;2.97;1.27;;;8.00;99.90;;;6.95;100.00;103133.00;5145876;23;20092;-79
2023/02/03 06:04:10;;;;;;;3.85;1.17;;;8.00;99.90;;;6.95;100.00;103142.63;5198205;22;20004;-79
2023/02/03 06:06:11;;;;;;;2.53;1.02;;;7.90;99.90;;;6.94;100.00;103140.94;5198183;22;20350;-79
2023/02/03 06:08:12;;;;;;;2.55;1.10;;;7.90;99.90;;;7.04;100.00;103168.44;5197364;22;19999;-79
2023/02/03 06:10:13;;;;;;;6.22;1.38;;;7.90;99.90;;;6.92;100.00;103141.00;5198236;22;20004;-79
2023/02/03 06:12:14;;;;;;;2.03;1.20;;;7.90;99.90;;;6.94;100.00;103141.78;5198292;22;20024;-78
2023/02/03 06:14:15;;;;;;;2.88;1.15;;;7.90;99.90;;;6.92;100.00;103145.41;5170966;23;20004;-79
2023/02/03 06:16:16;;;;;;;3.75;1.30;;;7.90;99.90;;;7.08;100.00;103177.84;5198112;22;20335;-79
2023/02/03 06:18:17;;;;;;;3.20;1.20;;;8.00;99.90;;;7.09;100.00;103180.41;5199481;22;20000;-79
2023/02/03 06:20:19;;;;;;;2.78;1.00;;;8.00;99.90;;;7.12;100.00;103182.03;5199977;22;20003;-79
2023/02/03 06:22:20;;;;;;;3.67;0.85;;;8.00;99.90;;;7.10;100.00;103192.63;5199608;22;19999;-79
2023/02/03 06:24:20;;;;;;;3.03;1.45;;;8.00;99.90;;;6.90;100.00;103163.81;5199488;22;20395;-79
2023/02/03 06:26:21;;;;;;;2.85;1.70;;;8.00;99.90;;;7.04;100.00;103189.44;5199741;22;20004;-79
2023/02/03 06:28:22;;;;;;;2.70;1.45;;;7.90;99.90;;;6.92;100.00;103171.66;5199708;22;20022;-79
2023/02/03 06:30:23;;;;;;;4.95;1.42;;;7.90;99.90;;;6.93;100.00;103173.34;5199294;22;20026;-79
2023/02/03 06:32:24;;;;;;;2.75;1.42;;;7.90;99.90;;;6.91;100.00;103175.19;5199578;22;20004;-79
2023/02/03 06:34:25;;;;;;;3.50;1.80;;;7.90;99.90;;;6.89;100.00;103174.41;5199684;22;20057;-79
2023/02/03 06:36:26;;;;;;;2.58;1.20;;;7.90;99.90;;;6.88;100.00;103183.19;5199096;22;20003;-79
2023/02/03 06:38:27;;;;;;;2.88;1.33;;;7.90;99.90;;;6.82;100.00;103178.25;5199615;22;20015;-79
2023/02/03 06:40:28;;;;;;;3.10;1.48;;;7.90;99.90;;;6.88;100.00;103188.44;5199586;22;20015;-79
2023/02/03 06:42:28;;;;;;;3.78;1.40;;;7.80;99.90;;;6.75;100.00;103161.09;5199312;22;20004;-79
2023/02/03 06:44:29;;;;;;;4.03;1.70;;;7.80;99.90;;;6.87;100.00;103192.84;5199569;22;20014;-79
2023/02/03 06:46:31;;;;;;;4.93;1.60;;;7.80;99.90;;;6.90;100.00;103205.00;5199559;22;20008;-79
2023/02/03 06:48:32;;;;;;;5.35;2.05;;;7.80;99.90;;;6.90;100.00;103208.44;5172372;23;20011;-79
2023/02/03 06:50:32;;;;;;;5.40;1.90;;;7.80;99.90;;;6.91;100.00;103214.53;5199688;22;19999;-79
2023/02/03 06:52:33;;;;;;;3.25;1.60;;;7.80;99.90;;;6.73;100.00;103178.66;5172246;23;20004;-79
2023/02/03 06:54:34;;;;;;;3.53;1.63;;;7.80;99.90;;;6.81;100.00;103193.13;5199540;22;20004;-79
2023/02/03 06:56:35;;;;;;;5.50;1.95;;;7.80;99.90;;;6.83;100.00;103193.06;5199403;22;20004;-79
2023/02/03 06:58:36;;;;;;;3.35;1.45;;;7.80;99.90;;;6.87;100.00;103216.44;5199416;22;20007;-79
2023/02/03 07:00:37;;;;;;;4.22;2.25;;;7.80;99.90;;;6.91;100.00;103230.28;5172608;23;20539;-79
2023/02/03 07:02:38;;;;;;;5.20;1.75;;;7.80;99.90;;;6.75;100.00;103197.84;5199525;22;20049;-79
2023/02/03 07:04:39;;;;;;;5.53;1.20;;;7.80;99.90;;;6.75;100.00;103200.47;5199345;22;20050;-79
2023/02/03 07:06:40;;;;;;;5.50;2.20;;;7.70;99.90;;;6.73;100.00;103197.03;5199144;22;20012;-79
2023/02/03 07:08:41;;;;;;;3.10;1.50;;;7.80;99.90;;;6.85;100.00;103220.06;5172432;23;20019;-79
2023/02/03 07:10:42;;;;;;;3.78;1.67;;;7.70;99.90;;;6.84;100.00;103219.22;5199376;22;20117;-79
2023/02/03 07:12:43;;;;;;;2.92;1.65;;;7.70;99.90;;;6.77;100.00;103211.72;5199503;22;20070;-79
2023/02/03 07:14:44;;;;;;;4.70;1.98;;;7.70;99.90;;;6.85;100.00;103222.69;5172124;23;20005;-79
2023/02/03 07:16:45;;;;;;;4.68;2.30;;;7.70;99.90;;;6.67;100.00;103195.53;5199216;22;20027;-79
2023/02/03 07:18:46;;;;;;;3.45;1.70;;;7.70;99.90;;;6.68;100.00;103197.25;5199508;22;20057;-79
2023/02/03 07:20:47;;;;;;;4.22;1.92;;;7.70;99.90;;;6.68;100.00;103198.13;5172488;23;20004;-79
2023/02/03 07:22:56;;;;;;;3.67;1.50;;;7.70;99.90;;;6.68;100.00;103197.25;5199065;22;20030;-79
2023/02/03 07:24:56;;;;;;;4.18;1.80;;;7.70;99.90;;;6.84;100.00;103223.63;5199183;22;20343;-79
2023/02/03 07:26:57;;;;;;;3.50;2.20;;;7.70;99.90;;;6.84;100.00;103221.00;5199168;22;20010;-79
2023/02/03 07:28:59;;;;;;;3.83;1.90;;;7.70;99.90;;;6.71;100.00;103191.88;5199070;22;20454;-79
2023/02/03 07:31:00;;;;;;;5.30;1.92;;;7.70;99.90;;;6.72;100.00;103188.31;5198669;22;20458;-79
2023/02/03 07:33:02;;;;;;;4.50;1.67;;;7.70;99.90;;;6.93;100.00;103228.47;5199046;22;20000;-79
2023/02/03 07:35:03;;;;;;;7.57;1.85;;;7.80;99.90;;;6.99;100.00;103222.91;5199101;22;20008;-79
2023/02/03 07:37:04;;;;;;;2.88;1.88;;;7.80;99.90;;;6.97;100.00;103230.00;5199034;22;20003;-79
2023/02/03 07:39:04;;;;;;;3.13;2.30;;;7.80;99.90;;;7.00;100.00;103224.59;5199169;22;20023;-79
2023/02/03 07:41:06;;;;;;;5.35;2.78;;;7.90;99.90;;;6.91;100.00;103204.03;5199045;22;20004;-79
2023/02/03 07:43:07;;;;;;;5.88;2.55;;;7.90;99.90;;;6.98;100.00;103218.59;5172142;23;20008;-79
2023/02/03 07:45:10;;;;;;;4.15;2.60;;;7.90;99.90;;;6.96;100.00;103212.56;5199046;22;20004;-80
2023/02/03 07:47:11;;;;;;;4.43;2.55;;;8.00;99.90;;;7.00;100.00;103216.72;5172342;22;20095;-80
2023/02/03 07:49:13;;;;;;;8.25;3.38;;;8.00;99.90;;;7.05;100.00;103212.09;5198940;22;20003;-79
2023/02/03 07:51:14;;;;;;;6.00;3.30;;;8.00;99.90;;;7.13;100.00;103231.84;5172208;22;20000;-79
2023/02/03 07:53:15;;;;;;;5.70;3.00;;;8.10;99.90;;;7.15;100.00;103224.72;5171886;23;20000;-80
2023/02/03 07:55:16;;;;;;;4.47;2.67;;;8.10;99.90;;;7.23;100.00;103227.81;5199178;22;20007;-80
2023/02/03 07:57:17;;;;;;;5.63;3.13;;;8.20;99.90;;;7.28;100.00;103230.25;5198966;22;20004;-80
2023/02/03 07:59:18;;;;;;;7.38;3.45;;;8.20;99.90;;;7.43;100.00;103245.25;5198985;22;20007;-79
2023/02/03 08:01:19;;;;;;;5.28;3.42;;;8.30;99.90;;;7.46;100.00;103249.50;5198932;22;20007;-79
2023/02/03 08:03:20;;;;;;;7.60;5.97;;;8.30;99.90;;;7.50;100.00;103251.03;5172009;23;20008;-79
2023/02/03 08:05:21;;;;;;;11.40;6.05;;;8.30;99.90;;;7.43;100.00;103237.38;5172018;23;20460;-80
2023/02/03 08:07:22;;;;;;;7.85;6.03;;;8.40;99.90;;;7.43;100.00;103237.38;5198815;22;20145;-80
2023/02/03 08:09:22;;;;;;;25.52;14.85;;;8.40;99.90;;;7.50;100.00;103237.91;5198743;22;20007;-79
2023/02/03 08:11:23;;;;;;;24.35;14.52;;;8.40;99.90;;;7.42;100.00;103226.94;5198870;22;20007;-79
2023/02/03 08:13:24;;;;;;;19.48;13.25;;;8.50;99.90;;;7.47;100.00;103231.03;5171916;23;20000;-79
2023/02/03 08:15:25;;;;;;;13.13;7.82;;;8.50;99.90;;;7.53;100.00;103228.09;5198649;22;20000;-79
2023/02/03 08:17:26;;;;;;;9.30;3.40;;;8.60;99.90;;;7.64;100.00;103245.97;5198642;22;19999;-79
2023/02/03 08:19:28;;;;;;;4.65;2.80;;;8.60;99.90;;;7.69;100.00;103246.59;5198543;22;20010;-79
2023/02/03 08:21:28;;;;;;;5.45;2.78;;;8.70;99.90;;;7.91;100.00;103267.41;5198501;22;20010;-79
2023/02/03 08:23:30;;;;;;;7.38;2.28;;;8.70;99.90;;;7.98;99.76;103264.38;5198739;22;20331;-81
2023/02/03 08:25:31;;;;;;;4.68;2.00;;;8.80;99.90;;;8.07;98.73;103265.69;5198259;22;20401;-79
2023/02/03 08:27:32;;;;;;;4.47;1.90;;;8.90;99.90;;;8.14;98.32;103264.44;5198607;22;20012;-79
2023/02/03 08:29:33;;;;;;;7.90;2.00;;;8.90;99.90;;;8.07;96.66;103240.25;5198634;22;20030;-79
2023/02/03 08:31:34;;;;;;;4.78;1.60;;;9.00;99.90;;;8.17;95.69;103236.22;5198741;22;20000;-79
2023/02/03 08:33:35;;;;;;;5.70;2.80;;;9.10;99.90;;;8.30;95.20;103247.00;5171823;23;20003;-79
2023/02/03 08:35:36;;;;;;;3.70;1.70;;;9.20;99.90;;;8.34;96.07;103252.00;5171748;23;20432;-79
2023/02/03 08:37:37;;;;;;;4.75;2.10;;;9.20;99.90;;;8.38;95.38;103251.84;5171569;23;20000;-79
2023/02/03 08:39:38;;;;;;;2.35;1.70;;;9.30;99.90;;;8.44;95.89;103246.25;5198354;22;20478;-79
2023/02/03 08:41:39;;;;;;;3.95;1.67;;;9.40;99.90;;;8.52;95.64;103260.69;5171987;23;20016;-79
2023/02/03 08:43:41;;;;;;;2.45;1.52;;;9.50;99.90;;;8.62;95.68;103261.91;5171785;23;20325;-80
2023/02/03 08:45:41;;;;;;;3.38;1.75;;;9.60;99.90;;;8.69;94.64;103271.16;5172006;23;20004;-80